Main page
METAR-TAF:

METAR-TAF

Airports :

Farnborough Airport

Farnborough, England

latitude: 51-17N, longitude: 000-46W, elevation: 65 m

Current weather observation

The report was made 19 minutes ago, at 23:20 UTC
Wind 10 kt from the West/Southwest
Temperature 12°C
Humidity 82%
Pressure 1019 hPa
Visibility 10 km or more

METAR: EGLF 252320Z AUTO 25010KT 9999 NCD 12/09 Q1019

Time: 00:39 (23:39 UTC)

Forecast

The report was made 6 hours and 44 minutes ago, at 16:55 UTC
Forecast valid from 25 at 18 UTC to 25 at 21 UTC
Wind 11 kt from the West
Visibility 10 km or more
Scattered clouds at a height of 4000 ft

TAF: EGLF 251655Z 2518/2521 27011KT 9999 SCT040

Weather observations and forecasts of more than 4000 airports (METAR and TAF reports).

The available stations are represented by yellow and red dots on the map.

Hover mouse over dot to see the name of the station.

Then click to see weather observations and forecasts.

To change the map : click on the green buttons with a black cross to zoom in, on the green button with a dash to zoom out, or on the green arrows for adjacent maps.


METAR-TAF: